Time;durP1;ratioP1;P1;durP2;ratioP2;P2;SDS_P1;SDS_P2;PMS_P1;PMS_P2;Temp;Humidity;BMP_temperature;BMP_pressure;BME280_temperature;BME280_humidity;BME280_pressure;Samples;Min_cycle;Max_cycle;Signal;HPM_P1;HPM_P2
2021/08/21 08:30:05;;;;;;;9.68;4.25;;;22.90;99.20;;;;;;14674122;22;1358483;-55
2021/08/21 08:35:52;;;;;;;6.60;4.32;;;23.10;99.00;;;;;;14718826;23;20024;-61
2021/08/21 08:41:42;;;;;;;14.00;5.43;;;23.20;98.70;;;;;;14738976;23;20100;-66
2021/08/21 08:47:32;;;;;;;7.55;4.60;;;23.40;98.60;;;;;;14734858;23;20053;-57
2021/08/21 08:53:19;;;;;;;6.28;4.63;;;23.50;98.10;;;;;;14735143;23;20355;-60
2021/08/21 08:59:05;;;;;;;5.05;4.05;;;23.60;98.10;;;;;;14734904;23;20083;-56
2021/08/21 09:05:01;;;;;;;7.70;4.53;;;23.70;97.80;;;;;;14726445;23;20104;-59
2021/08/21 09:10:49;;;;;;;5.85;4.20;;;23.80;97.80;;;;;;14717885;23;20416;-59
2021/08/21 09:16:36;;;;;;;10.02;4.68;;;23.90;97.70;;;;;;14719226;23;20131;-59
2021/08/21 09:22:24;;;;;;;8.23;4.80;;;24.00;97.80;;;;;;14717672;23;20433;-57
2021/08/21 09:28:16;;;;;;;6.85;4.22;;;24.20;97.80;;;;;;14700757;23;20049;-59
2021/08/21 09:34:06;;;;;;;5.20;4.13;;;24.50;97.30;;;;;;14690238;23;20442;-57
2021/08/21 09:40:04;;;;;;;5.55;4.40;;;24.60;96.80;;;;;;14690349;23;20029;-58
2021/08/21 09:46:10;;;;;;;8.82;4.18;;;24.70;97.40;;;;;;14698229;23;20025;-60
2021/08/21 09:51:57;;;;;;;10.40;4.25;;;24.80;97.00;;;;;;14717513;23;20021;-59
2021/08/21 09:57:58;;;;;;;6.93;3.92;;;24.80;97.30;;;;;;14716294;23;20027;-60
2021/08/21 10:03:45;;;;;;;5.70;3.65;;;25.00;96.90;;;;;;14713867;23;20104;-60
2021/08/21 10:09:34;;;;;;;6.45;4.25;;;25.10;96.50;;;;;;14717589;23;20017;-60
2021/08/21 10:15:23;;;;;;;10.73;4.50;;;25.20;96.40;;;;;;14712881;23;20412;-61
2021/08/21 10:21:10;;;;;;;7.90;4.00;;;25.30;95.40;;;;;;14717544;23;20025;-59
2021/08/21 10:27:04;;;;;;;5.53;4.13;;;25.40;95.80;;;;;;14705871;23;20125;-58
2021/08/21 10:33:00;;;;;;;7.78;4.13;;;25.60;95.50;;;;;;14704200;23;20096;-59
2021/08/21 10:38:47;;;;;;;11.05;4.45;;;25.70;95.30;;;;;;14716955;23;20029;-58
2021/08/21 10:44:46;;;;;;;4.40;3.65;;;26.00;95.50;;;;;;14714589;23;20031;-59
2021/08/21 10:50:36;;;;;;;4.25;3.85;;;26.10;94.60;;;;;;14716560;23;20025;-59
2021/08/21 10:56:34;;;;;;;5.32;4.07;;;26.20;94.20;;;;;;14717085;23;20021;-61
2021/08/21 11:02:43;;;;;;;4.60;3.78;;;26.30;94.00;;;;;;14715162;23;20104;-63
2021/08/21 11:08:53;;;;;;;6.28;3.80;;;26.50;94.00;;;;;;14715701;23;20025;-59
2021/08/21 11:14:42;;;;;;;7.05;3.95;;;26.50;93.60;;;;;;14716588;23;20029;-56
2021/08/21 11:20:31;;;;;;;5.95;4.05;;;26.40;93.70;;;;;;14716899;23;20452;-59
2021/08/21 11:26:23;;;;;;;4.03;3.63;;;26.40;93.90;;;;;;14713221;23;20039;-59
2021/08/21 11:32:21;;;;;;;4.85;3.45;;;26.20;93.90;;;;;;14715391;23;20095;-58
2021/08/21 11:38:10;;;;;;;5.20;4.07;;;26.30;94.50;;;;;;14714364;23;20467;-57
2021/08/21 11:44:06;;;;;;;6.68;3.70;;;26.40;94.00;;;;;;14715467;23;20031;-60
2021/08/21 11:49:53;;;;;;;5.63;3.35;;;26.70;94.00;;;;;;14715864;23;20020;-58
2021/08/21 11:55:41;;;;;;;4.30;3.30;;;26.80;93.80;;;;;;14715982;23;20029;-59
2021/08/21 12:01:34;;;;;;;8.55;3.90;;;27.00;93.20;;;;;;14715271;23;20045;-58
2021/08/21 12:07:31;;;;;;;7.53;3.85;;;27.00;92.70;;;;;;14716092;23;20068;-60
2021/08/21 12:13:21;;;;;;;5.07;3.80;;;27.30;92.40;;;;;;14715385;23;20108;-59
2021/08/21 12:19:10;;;;;;;4.95;3.92;;;27.40;92.40;;;;;;14688301;23;20399;-59
2021/08/21 12:24:58;;;;;;;4.40;3.70;;;27.40;92.20;;;;;;14713547;23;20032;-59
2021/08/21 12:30:54;;;;;;;4.82;3.88;;;27.30;91.80;;;;;;14689265;23;20025;-59
2021/08/21 12:36:44;;;;;;;3.92;3.35;;;27.20;91.80;;;;;;14687018;23;20116;-60
2021/08/21 12:42:31;;;;;;;4.55;3.70;;;27.00;91.20;;;;;;14715161;23;20032;-59
2021/08/21 12:48:25;;;;;;;6.32;3.42;;;27.10;91.70;;;;;;14718447;23;20020;-60
2021/08/21 12:54:14;;;;;;;5.05;3.55;;;27.10;91.50;;;;;;14718322;23;20505;-59
2021/08/21 13:00:02;;;;;;;4.90;3.22;;;27.10;91.30;;;;;;14718456;23;20432;-60
2021/08/21 13:05:57;;;;;;;6.88;3.20;;;27.10;90.50;;;;;;14719018;23;20101;-65
2021/08/21 13:11:45;;;;;;;4.15;3.45;;;27.20;90.40;;;;;;14718535;23;20025;-64
2021/08/21 13:17:32;;;;;;;5.65;3.50;;;27.40;88.40;;;;;;14718984;23;20017;-65
2021/08/21 13:23:19;;;;;;;4.57;3.25;;;27.20;87.70;;;;;;14717498;23;20569;-62
2021/08/21 13:29:08;;;;;;;5.18;3.33;;;26.90;88.30;;;;;;14695196;23;20024;-60
2021/08/21 13:34:55;;;;;;;4.35;3.28;;;26.70;88.70;;;;;;14690990;23;20017;-59
2021/08/21 13:41:03;;;;;;;3.28;2.70;;;26.60;89.10;;;;;;14654123;23;21057;-81
2021/08/21 13:47:24;;;;;;;5.32;3.05;;;26.70;87.30;;;;;;14639324;23;20025;-81
2021/08/21 13:53:47;;;;;;;;;;;;;;;;;;;;;
2021/08/21 13:59:56;;;;;;;8.00;3.22;;;26.40;86.60;;;;;;14638329;23;20033;-79
2021/08/21 14:05:49;;;;;;;11.20;3.55;;;26.10;86.50;;;;;;14627841;23;20112;-81
2021/08/21 14:18:06;;;;;;;5.32;3.20;;;26.40;89.30;;;;;;14423470;23;20368;-81
2021/08/21 14:23:53;;;;;;;7.20;3.33;;;26.50;87.70;;;;;;14424354;23;20054;-80
2021/08/21 14:29:45;;;;;;;9.23;3.63;;;26.30;87.50;;;;;;14363407;23;20062;-81
2021/08/21 14:35:34;;;;;;;7.05;3.13;;;26.30;88.80;;;;;;14353475;23;20023;-81
2021/08/21 14:41:22;;;;;;;6.55;3.05;;;26.50;88.00;;;;;;14353520;23;20159;-79
2021/08/21 14:47:10;;;;;;;3.45;3.00;;;26.60;87.40;;;;;;14468013;23;20335;-80
2021/08/21 14:52:57;;;;;;;5.45;3.35;;;26.30;87.10;;;;;;14567657;23;20097;-80
2021/08/21 14:58:44;;;;;;;5.53;3.38;;;26.20;87.80;;;;;;14567972;23;20026;-78
2021/08/21 15:04:36;;;;;;;4.53;3.20;;;26.10;88.10;;;;;;14565218;23;20736;-80
2021/08/21 15:10:23;;;;;;;3.42;3.05;;;26.00;88.90;;;;;;14567712;23;20037;-79
2021/08/21 15:16:10;;;;;;;3.67;3.17;;;26.10;89.00;;;;;;14564648;23;20824;-81
2021/08/21 15:22:00;;;;;;;7.28;3.45;;;26.50;88.80;;;;;;14567465;23;20088;-81
2021/08/21 15:28:10;;;;;;;9.07;3.47;;;26.50;88.70;;;;;;14567224;23;20022;-81
2021/08/21 15:33:57;;;;;;;3.78;3.30;;;26.30;89.80;;;;;;14570968;23;20138;-81
2021/08/21 15:39:45;;;;;;;8.85;3.67;;;26.40;90.20;;;;;;14569406;23;20026;-80
2021/08/21 15:45:35;;;;;;;3.97;3.45;;;26.40;90.30;;;;;;14576949;23;20048;-82
2021/08/21 15:51:22;;;;;;;5.53;3.42;;;26.20;90.40;;;;;;14571602;23;20057;-82
2021/08/21 15:57:10;;;;;;;5.45;3.60;;;26.00;90.60;;;;;;14566695;23;20021;-82
2021/08/21 16:02:58;;;;;;;5.13;3.72;;;26.00;90.90;;;;;;14569016;23;20022;-81
2021/08/21 16:08:44;;;;;;;5.40;3.63;;;26.10;90.90;;;;;;14567152;23;20022;-81
2021/08/21 16:14:36;;;;;;;6.03;3.65;;;26.20;90.80;;;;;;14568426;23;20032;-81
2021/08/21 16:20:25;;;;;;;5.57;4.30;;;26.30;90.80;;;;;;14571975;23;20134;-81
2021/08/21 16:26:12;;;;;;;7.55;4.60;;;26.30;91.00;;;;;;14569629;23;20073;-81
2021/08/21 16:32:00;;;;;;;5.00;3.95;;;26.60;90.60;;;;;;14568369;23;20021;-82
2021/08/21 16:37:47;;;;;;;6.30;3.95;;;26.50;90.60;;;;;;14569558;23;20100;-82
2021/08/21 16:43:35;;;;;;;6.53;4.07;;;26.40;91.20;;;;;;14565615;23;20109;-83
2021/08/21 16:49:23;;;;;;;6.60;4.10;;;26.10;91.70;;;;;;14567520;23;20108;-84
2021/08/21 16:55:10;;;;;;;11.52;7.50;;;26.00;92.30;;;;;;14568377;23;20093;-85
2021/08/21 17:00:57;;;;;;;5.95;4.45;;;26.10;92.50;;;;;;14569711;23;20026;-82
2021/08/21 17:06:46;;;;;;;5.53;3.50;;;26.00;92.40;;;;;;14566758;23;20137;-88
2021/08/21 17:12:33;;;;;;;8.95;6.45;;;26.80;91.70;;;;;;14570768;23;20029;-85
2021/08/21 17:18:20;;;;;;;6.95;4.22;;;27.60;90.60;;;;;;14568676;23;20113;-81
2021/08/21 17:24:09;;;;;;;5.20;4.43;;;27.20;91.20;;;;;;14568263;23;20053;-82
2021/08/21 17:29:56;;;;;;;6.38;4.05;;;27.60;90.20;;;;;;14566907;23;20032;-84
2021/08/21 17:35:43;;;;;;;6.25;4.22;;;26.70;91.20;;;;;;14569898;23;20030;-83
2021/08/21 17:41:32;;;;;;;4.60;4.07;;;26.10;92.30;;;;;;14565539;23;20399;-83
2021/08/21 17:47:19;;;;;;;6.40;4.50;;;25.80;93.10;;;;;;14565854;23;20078;-81
2021/08/21 17:53:07;;;;;;;14.90;10.48;;;25.40;93.60;;;;;;14566141;23;20049;-82
2021/08/21 17:59:01;;;;;;;7.60;4.95;;;25.40;93.90;;;;;;14562248;23;20613;-81
2021/08/21 18:04:48;;;;;;;;;;;25.40;94.10;;;;;;14562109;23;20022;-80
2021/08/21 18:10:35;;;;;;;9.77;6.60;;;25.30;94.30;;;;;;14557305;23;19920;-80
2021/08/21 18:16:24;;;;;;;27.90;20.27;;;25.10;94.50;;;;;;14563371;23;20074;-79
2021/08/21 18:22:13;;;;;;;35.42;23.10;;;25.10;94.50;;;;;;14562746;23;20435;-79
2021/08/21 18:28:01;;;;;;;7.60;5.18;;;25.00;94.70;;;;;;14568586;23;20021;-86
2021/08/21 18:34:18;;;;;;;19.48;14.32;;;25.00;95.00;;;;;;14566825;23;20032;-81
2021/08/21 18:40:10;;;;;;;11.32;8.10;;;24.50;93.80;;;;;;14557875;23;20033;-80
2021/08/21 18:46:39;;;;;;;7.68;6.10;;;24.30;93.90;;;;;;14555711;23;20475;-81
2021/08/21 18:52:28;;;;;;;15.32;11.75;;;24.20;94.00;;;;;;14484526;23;20080;-79
2021/08/21 18:58:15;;;;;;;8.95;6.00;;;24.00;93.80;;;;;;14561979;23;20029;-81
2021/08/21 19:04:03;;;;;;;7.78;5.57;;;24.00;93.90;;;;;;14559314;23;20025;-81
2021/08/21 19:09:51;;;;;;;8.80;5.78;;;24.00;93.90;;;;;;14562087;23;20108;-78
2021/08/21 19:15:38;;;;;;;14.20;9.52;;;23.80;94.10;;;;;;14548942;23;20022;-79
2021/08/21 19:21:25;;;;;;;8.93;6.68;;;23.80;94.20;;;;;;14551973;23;20113;-79
2021/08/21 19:27:19;;;;;;;14.25;11.13;;;23.50;94.60;;;;;;14549585;23;20033;-79
2021/08/21 19:33:07;;;;;;;8.98;6.38;;;23.60;94.60;;;;;;14554735;23;20022;-80
2021/08/21 19:39:04;;;;;;;7.47;5.82;;;23.60;94.70;;;;;;14554910;23;20492;-82
2021/08/21 19:51:00;;;;;;;25.00;17.20;;;23.50;94.80;;;;;;14276027;23;20192;-80
2021/08/21 19:56:47;;;;;;;11.02;7.57;;;23.40;95.00;;;;;;14274408;23;20495;-81
2021/08/21 20:02:36;;;;;;;5.85;4.65;;;23.50;95.10;;;;;;14269161;23;20023;-86
2021/08/21 20:08:23;;;;;;;6.03;4.25;;;23.30;95.10;;;;;;14279141;23;20098;-83
2021/08/21 20:14:09;;;;;;;10.15;6.95;;;23.30;95.40;;;;;;14431803;23;20400;-81
2021/08/21 20:20:00;;;;;;;5.05;4.40;;;23.20;95.50;;;;;;14550910;23;20182;-80
2021/08/21 20:25:47;;;;;;;6.32;4.50;;;23.20;95.60;;;;;;14556456;23;20045;-80
2021/08/21 20:37:37;;;;;;;8.02;5.95;;;23.20;95.60;;;;;;14569929;23;20029;-80
2021/08/21 20:43:24;;;;;;;5.95;3.63;;;23.30;95.70;;;;;;14553491;23;20713;-76
2021/08/21 20:49:11;;;;;;;6.70;3.85;;;23.10;96.10;;;;;;14555824;23;20022;-79
2021/08/21 20:54:59;;;;;;;7.82;5.43;;;23.20;96.00;;;;;;14551016;23;20022;-79
2021/08/21 21:00:46;;;;;;;4.85;4.00;;;23.30;95.90;;;;;;14561172;23;20028;-83
2021/08/21 21:06:41;;;;;;;7.45;5.32;;;23.20;96.00;;;;;;14562610;23;20779;-80
2021/08/21 21:12:32;;;;;;;8.32;5.60;;;23.10;96.20;;;;;;14568716;23;20033;-80
2021/08/21 21:18:24;;;;;;;7.28;4.88;;;23.10;96.40;;;;;;14575926;23;20022;-79
2021/08/21 21:24:12;;;;;;;7.40;5.63;;;23.10;96.40;;;;;;14575946;23;20022;-81
2021/08/21 21:30:04;;;;;;;15.20;9.95;;;23.00;96.60;;;;;;14574197;23;20029;-79
2021/08/21 21:35:59;;;;;;;20.73;11.65;;;22.90;96.90;;;;;;14553051;23;20337;-78
2021/08/21 21:41:46;;;;;;;14.07;9.77;;;22.90;97.20;;;;;;14557206;23;20026;-82
2021/08/21 21:47:44;;;;;;;;;;;;;;;;;;;;;
2021/08/21 21:53:48;;;;;;;7.72;5.32;;;22.80;97.30;;;;;;14568865;23;20021;-82
2021/08/21 22:26:16;;;;;;;13.13;7.68;;;22.40;98.80;;;;;;14321389;23;20029;-66
2021/08/21 22:32:05;;;;;;;6.72;4.55;;;22.40;98.60;;;;;;14612204;23;20026;-67
2021/08/21 22:37:53;;;;;;;19.70;15.20;;;22.50;98.50;;;;;;14617588;23;20029;-66
2021/08/21 22:43:40;;;;;;;8.43;4.32;;;22.50;98.30;;;;;;14605934;23;20033;-68
2021/08/21 22:49:28;;;;;;;27.83;16.63;;;22.50;98.10;;;;;;14612644;23;20022;-67
